Happy Valentine's Day! 

Flight Track Log - Related Links

Times and Time Zones

All times are in EDT time to prevent confusion due to time zone crossing. See the SWA2702 flight status page for this flight to view local times or setup timezone preferences in your user account.


Time Position Orientation Groundspeed Altitude Reporting Facility
EDT Latitude Longitude Course Direction KTS MPH feet Rate Location/Type
Wed 10:37:59 AM 36.0625 -115.2550 258° West 240 276 5,300  Level Los Angeles Center
Wed 10:39:05 AM 35.9906 -115.2919 203° Southwest 253 291 7,100 2,315 Climbing Los Angeles Center
Wed 10:40:06 AM 35.9286 -115.3547 219° Southwest 284 327 10,200 2,672 Climbing Los Angeles Center
Wed 10:41:13 AM 35.8872 -115.4158 230° Southwest 285 328 12,800 2,651 Climbing Los Angeles Center
Wed 10:42:15 AM 35.8883 -115.5592 271° West 317 365 15,900 2,710 Climbing Los Angeles Center
Wed 10:43:17 AM 35.8914 -115.6869 272° West 368 423 18,400 2,661 Climbing Los Angeles Center
Wed 10:44:19 AM 35.9183 -115.8239 284° West 393 452 21,400 2,468 Climbing Los Angeles Center
Wed 10:45:21 AM 35.9933 -115.9278 312° West 408 470 23,500 1,935 Climbing Los Angeles Center
Wed 10:46:23 AM 36.0597 -116.0228 311° West 414 476 25,400 1,902 Climbing Los Angeles Center
Wed 10:47:24 AM 36.1547 -116.1578 311° West 431 496 27,400 1,610 Climbing Los Angeles Center
Wed 10:48:26 AM 36.2158 -116.2439 311° West 444 511 28,700 1,500 Climbing Los Angeles Center
Wed 10:49:28 AM 36.2983 -116.3611 311° West 450 518 30,500 1,887 Climbing Los Angeles Center
Wed 10:50:30 AM 36.3972 -116.5022 311° West 453 521 32,600 1,694 Climbing Los Angeles Center
Wed 10:51:32 AM 36.4778 -116.6197 310° West 452 520 34,000 683 Climbing Los Angeles Center
Wed 10:52:33 AM 36.5658 -116.7458 311° West 448 516 34,000  Level Los Angeles Center
Wed 10:53:35 AM 36.6544 -116.8608 314° West 455 524 34,000  Level Los Angeles Center
Wed 10:54:37 AM 36.7514 -116.9831 315° West 453 521 34,000  Level Los Angeles Center
Wed 10:55:39 AM 36.8467 -117.1075 314° West 451 519 34,000  Level Los Angeles Center
Wed 10:56:41 AM 36.9331 -117.2197 314° West 448 516 34,000  Level Los Angeles Center
Wed 10:57:43 AM 37.0178 -117.3286 314° West 439 505 34,000  Level Los Angeles Center
Wed 10:59:46 AM 37.1889 -117.5514 314° West 442 509 34,000  Level Los Angeles Center
Wed 11:00:48 AM 37.2731 -117.6625 314° West 438 504 34,000  Level Los Angeles Center
Wed 11:01:50 AM 37.3586 -117.7733 314° West 440 506 34,000  Level Los Angeles Center
Wed 11:02:52 AM 37.4436 -117.8850 314° West 439 505 34,000  Level Los Angeles Center
Wed 11:03:53 AM 37.5458 -118.0206 314° West 443 510 34,000  Level Los Angeles Center
Wed 11:04:55 AM 37.6314 -118.1342 314° West 444 511 34,000 -242 Level Los Angeles Center
Wed 11:05:57 AM 37.7164 -118.2481 313° West 442 509 33,500 -806 Descending Los Angeles Center
Wed 11:07:09 AM 37.8164 -118.3825 313° West 439 505 32,200 -992 Descending Oakland Center
Wed 11:08:10 AM 37.9017 -118.4967 313° West 444 511 31,300 -878 Descending Oakland Center
Wed 11:09:12 AM 37.9872 -118.6117 313° West 446 513 30,400 -634 Descending Oakland Center
Wed 11:10:13 AM 38.0725 -118.7292 313° West 451 519 30,000 -197 Descending Oakland Center
Wed 11:11:14 AM 38.1561 -118.8422 313° West 452 520 30,000  Level Oakland Center
Wed 11:12:15 AM 38.2414 -118.9592 313° West 451 519 30,000  Level Oakland Center
Wed 11:13:16 AM 38.3278 -119.0767 313° West 452 520 30,000  Level Oakland Center
Wed 11:14:18 AM 38.4292 -119.2175 313° West 449 517 30,000 -146 Level Oakland Center
Wed 11:15:19 AM 38.5086 -119.3394 310° West 448 516 29,700 -689 Descending Oakland Center
Wed 11:16:20 AM 38.5531 -119.4817 292° West 435 501 28,600 -1,024 Descending Oakland Center
Wed 11:17:22 AM 38.5939 -119.6203 291° West 420 483 27,600 -927 Descending Oakland Center
Wed 11:18:23 AM 38.6347 -119.7600 291° West 420 483 26,700 -984 Descending Oakland Center
Wed 11:19:24 AM 38.6756 -119.9050 290° West 419 482 25,600 -1,475 Descending Oakland Center
Wed 11:20:25 AM 38.7183 -120.0419 292° West 417 480 23,700 -1,967 Descending Oakland Center
Wed 11:21:26 AM 38.7539 -120.1717 289° West 395 455 21,600 -1,820 Descending Oakland Center
Wed 11:22:27 AM 38.7906 -120.2950 291° West 376 433 20,000 -1,220 Descending Oakland Center
Wed 11:23:29 AM 38.8253 -120.4164 290° West 366 421 19,100 -1,171 Descending Oakland Center
Wed 11:24:30 AM 38.8597 -120.5386 290° West 365 420 17,600 -1,869 Descending Oakland Center
Wed 11:25:31 AM 38.8661 -120.6589 274° West 337 388 15,300 -2,459 Descending Oakland Center
Wed 11:26:32 AM 38.8706 -120.7769 273° West 333 383 12,600 -2,439 Descending Oakland Center
Wed 11:27:34 AM 38.8761 -120.9169 273° West 328 377 10,300 -1,561 Descending Oakland Center
Wed 11:28:35 AM 38.8794 -121.0197 272° West 295 339 9,400 -1,525 Descending Oakland Center
Wed 11:29:36 AM 38.8825 -121.1175 272° West 279 321 7,200 -1,756 Descending Oakland Center
Wed 11:30:38 AM 38.8844 -121.2122 272° West 270 311 5,800 -1,415 Descending Oakland Center
Wed 11:31:39 AM 38.8661 -121.2961 254° West 247 284 4,300 -1,082 Descending Oakland Center
Wed 11:32:40 AM 38.8486 -121.3739 254° West 234 269 3,600 -976 Descending Oakland Center
Wed 11:33:42 AM 38.8308 -121.4483 253° West 223 257 2,300 -878 Descending Oakland Center
Wed 11:34:43 AM 38.8128 -121.5336 255° West 211 243 1,800 -443 Descending Oakland Center
Wed 11:35:44 AM 38.7850 -121.5761 230° Southwest 184 212 1,400 -488 Descending Oakland Center
Wed 11:36:46 AM 38.7469 -121.5794 184° South 153 176 800 -559 Descending Oakland Center
Wed 11:37:42 AM 38.7167 -121.5833 186° South 122 140 300 -536 Descending Northern Cal TRACON
Wed 11:39:00 AM 38.6954 -121.5908 218° Southwest  Level Estimated
Wed 11:46:00 AM 38.6954 -121.5908 218° Southwest  Level Estimated
Wed 11:47:00 AM 38.6954 -121.5908 218° Southwest  Level Estimated

Login

Don't have an account? Register now (free) for customized features, flight alerts, and more!